Time;durP1;ratioP1;P1;durP2;ratioP2;P2;SDS_P1;SDS_P2;PMS_P1;PMS_P2;Temp;Humidity;BMP_temperature;BMP_pressure;BME280_temperature;BME280_humidity;BME280_pressure;Samples;Min_cycle;Max_cycle;Signal;HPM_P1;HPM_P2
2024/04/22 00:01:18;;;;;;;2.23;1.97;;;4.10;99.90;;;;;;5479966;26;20266;-55
2024/04/22 00:03:46;;;;;;;2.60;2.33;;;4.10;99.90;;;;;;5436020;26;20250;-53
2024/04/22 00:06:12;;;;;;;2.10;1.90;;;4.10;99.90;;;;;;5481116;26;20598;-55
2024/04/22 00:08:40;;;;;;;3.70;2.30;;;4.10;99.90;;;;;;5481976;26;20260;-56
2024/04/22 00:11:06;;;;;;;3.17;1.90;;;4.00;99.90;;;;;;5460413;26;20230;-54
2024/04/22 00:13:35;;;;;;;2.10;1.90;;;4.10;99.90;;;;;;5470226;25;20281;-51
2024/04/22 00:16:04;;;;;;;2.87;1.97;;;4.00;99.90;;;;;;5490688;26;20222;-52
2024/04/22 00:18:33;;;;;;;2.23;1.90;;;4.00;99.90;;;;;;5428493;26;20304;-55
2024/04/22 00:20:59;;;;;;;2.20;2.00;;;4.00;99.90;;;;;;5489328;26;20308;-55
2024/04/22 00:23:27;;;;;;;3.70;2.50;;;4.00;99.90;;;;;;5485909;26;20279;-56
2024/04/22 00:25:53;;;;;;;2.17;1.97;;;4.00;99.90;;;;;;5458282;26;20274;-56
2024/04/22 00:28:22;;;;;;;3.10;2.27;;;4.00;99.90;;;;;;5484521;26;20226;-55
2024/04/22 00:30:48;;;;;;;2.67;2.10;;;4.00;99.90;;;;;;5485260;26;20293;-51
2024/04/22 00:33:19;;;;;;;2.40;2.20;;;4.00;99.90;;;;;;5471132;26;20336;-56
2024/04/22 00:35:54;;;;;;;2.60;2.40;;;4.00;99.90;;;;;;5476859;25;20229;-50
2024/04/22 00:38:23;;;;;;;2.70;2.27;;;4.00;99.90;;;;;;5475126;26;20395;-56
2024/04/22 00:40:48;;;;;;;3.00;2.30;;;3.90;99.90;;;;;;5453535;26;20243;-54
2024/04/22 00:43:17;;;;;;;2.67;2.00;;;3.90;99.90;;;;;;5488572;26;20231;-56
2024/04/22 00:45:44;;;;;;;3.97;1.93;;;3.90;99.90;;;;;;5479226;26;20230;-51
2024/04/22 00:48:13;;;;;;;5.77;2.33;;;3.90;99.90;;;;;;5478522;26;20557;-55
2024/04/22 00:50:42;;;;;;;2.97;2.20;;;3.90;99.90;;;;;;5446524;26;20245;-54
2024/04/22 00:53:12;;;;;;;2.37;1.90;;;3.90;99.90;;;;;;5471397;26;20270;-55
2024/04/22 00:55:39;;;;;;;2.00;1.80;;;3.90;99.90;;;;;;5458485;26;20367;-52
2024/04/22 00:58:10;;;;;;;1.90;1.70;;;3.80;99.90;;;;;;5473228;26;20233;-55
2024/04/22 01:00:36;;;;;;;2.90;2.10;;;3.80;99.90;;;;;;5480324;26;20302;-54
2024/04/22 01:03:05;;;;;;;3.27;2.33;;;3.80;99.90;;;;;;5483871;26;20234;-52
2024/04/22 01:05:31;;;;;;;3.53;2.00;;;3.80;99.90;;;;;;5430903;26;21043;-54
2024/04/22 01:08:02;;;;;;;2.20;1.97;;;3.80;99.90;;;;;;5475230;26;20272;-56
2024/04/22 01:10:29;;;;;;;3.63;2.57;;;3.70;99.90;;;;;;5470283;26;20231;-50
2024/04/22 01:12:57;;;;;;;3.17;2.30;;;3.70;99.90;;;;;;5480091;26;20342;-52
2024/04/22 01:15:23;;;;;;;2.40;2.03;;;3.60;99.90;;;;;;5491085;26;20276;-54
2024/04/22 01:17:52;;;;;;;2.57;2.20;;;3.70;99.90;;;;;;5492356;26;20234;-53
2024/04/22 01:20:18;;;;;;;2.50;2.10;;;3.70;99.90;;;;;;5423336;26;20285;-56
2024/04/22 01:22:49;;;;;;;2.47;2.00;;;3.60;99.90;;;;;;5479038;26;20268;-54
2024/04/22 01:25:16;;;;;;;2.07;1.60;;;3.50;99.90;;;;;;5487529;26;20235;-54
2024/04/22 01:27:45;;;;;;;2.83;2.07;;;3.50;99.90;;;;;;5475072;26;20325;-56
2024/04/22 01:30:11;;;;;;;1.80;1.67;;;3.50;99.90;;;;;;5483291;26;20222;-55
2024/04/22 01:32:40;;;;;;;4.17;2.53;;;3.60;99.90;;;;;;5476923;26;20269;-51
2024/04/22 01:35:06;;;;;;;2.57;2.13;;;3.60;99.90;;;;;;5475856;26;20990;-54
2024/04/22 01:37:35;;;;;;;2.87;1.93;;;3.60;99.90;;;;;;5431292;26;20547;-54
2024/04/22 01:40:04;;;;;;;5.00;2.47;;;3.70;99.90;;;;;;5497056;26;20780;-57
2024/04/22 01:42:32;;;;;;;2.73;2.23;;;3.60;99.90;;;;;;5480802;26;20245;-54
2024/04/22 01:44:58;;;;;;;2.57;2.37;;;3.60;99.90;;;;;;5464864;26;20234;-54
2024/04/22 01:47:27;;;;;;;2.33;2.10;;;3.60;99.90;;;;;;5470731;26;20348;-54
2024/04/22 01:49:53;;;;;;;3.63;2.47;;;3.50;99.90;;;;;;5465929;26;20261;-56
2024/04/22 01:52:21;;;;;;;2.20;2.00;;;3.60;99.90;;;;;;5425917;26;20242;-54
2024/04/22 01:54:47;;;;;;;3.53;2.70;;;3.50;99.90;;;;;;5480362;26;21057;-53
2024/04/22 01:57:18;;;;;;;3.57;2.43;;;3.60;99.90;;;;;;5477149;26;20238;-56
2024/04/22 01:59:44;;;;;;;2.50;2.30;;;3.50;99.90;;;;;;5466722;26;20254;-54
2024/04/22 02:02:12;;;;;;;2.33;2.13;;;3.60;99.90;;;;;;5464993;26;20285;-56
2024/04/22 02:04:38;;;;;;;4.57;2.67;;;3.60;99.90;;;;;;5465645;26;20245;-51
2024/04/22 02:07:07;;;;;;;2.87;1.97;;;3.60;99.90;;;;;;5436250;26;20238;-55
2024/04/22 02:09:33;;;;;;;2.87;2.30;;;3.60;99.90;;;;;;5480242;26;20330;-51
2024/04/22 02:12:01;;;;;;;5.50;2.47;;;3.50;99.90;;;;;;5485756;26;20258;-50
2024/04/22 02:14:30;;;;;;;4.30;2.00;;;3.50;99.90;;;;;;5477797;26;20223;-55
2024/04/22 02:16:59;;;;;;;2.37;2.13;;;3.60;99.90;;;;;;5463395;26;20234;-54
2024/04/22 02:19:26;;;;;;;2.60;2.40;;;3.60;99.90;;;;;;5469310;26;21133;-51
2024/04/22 02:21:55;;;;;;;3.63;2.13;;;3.60;99.90;;;;;;5476305;26;20238;-52
2024/04/22 02:24:20;;;;;;;2.80;2.40;;;3.60;99.90;;;;;;5442433;26;20243;-57
2024/04/22 02:26:49;;;;;;;3.10;2.33;;;3.60;99.90;;;;;;5475719;26;20631;-52
2024/04/22 02:29:15;;;;;;;6.97;2.63;;;3.50;99.90;;;;;;5485572;26;20226;-54
2024/04/22 02:31:46;;;;;;;2.73;2.00;;;3.50;99.90;;;;;;5459148;26;20278;-56
2024/04/22 02:34:11;;;;;;;2.13;1.90;;;3.50;99.90;;;;;;5472038;26;20751;-54
2024/04/22 02:36:40;;;;;;;2.30;2.10;;;3.50;99.90;;;;;;5491208;26;20227;-50
2024/04/22 02:39:06;;;;;;;2.40;2.20;;;3.50;99.90;;;;;;5441258;25;20258;-56
2024/04/22 02:41:34;;;;;;;3.17;2.13;;;3.50;99.90;;;;;;5508198;25;20260;-56
2024/04/22 02:44:00;;;;;;;4.67;2.80;;;3.40;99.90;;;;;;5469738;26;21101;-56
2024/04/22 02:46:28;;;;;;;2.33;2.13;;;3.30;99.90;;;;;;5466603;26;20369;-54
2024/04/22 02:48:57;;;;;;;3.37;2.27;;;3.30;99.90;;;;;;5474100;26;20238;-54
2024/04/22 02:51:25;;;;;;;3.50;2.20;;;3.30;99.90;;;;;;5485711;26;23166;-52
2024/04/22 02:53:51;;;;;;;2.63;2.43;;;3.30;99.90;;;;;;5486767;26;20274;-52
2024/04/22 02:56:20;;;;;;;3.70;2.50;;;3.30;99.90;;;;;;5434141;26;20239;-51
2024/04/22 02:58:46;;;;;;;5.27;2.33;;;3.30;99.90;;;;;;5472821;26;20261;-54
2024/04/22 03:01:14;;;;;;;4.00;2.43;;;3.30;99.90;;;;;;5475043;26;20532;-53
2024/04/22 03:03:40;;;;;;;4.60;2.70;;;3.40;99.90;;;;;;5468774;26;20775;-53
2024/04/22 03:06:11;;;;;;;2.87;2.67;;;3.40;99.90;;;;;;5474364;26;20323;-54
2024/04/22 03:08:37;;;;;;;4.03;2.67;;;3.40;99.90;;;;;;5478953;26;20274;-54
2024/04/22 03:11:06;;;;;;;2.50;2.30;;;3.40;99.90;;;;;;5429987;26;20290;-56
2024/04/22 03:13:32;;;;;;;2.87;2.20;;;3.40;99.90;;;;;;5475641;26;20241;-53
2024/04/22 03:16:01;;;;;;;2.97;2.10;;;3.40;99.90;;;;;;5475226;26;20230;-56
2024/04/22 03:18:27;;;;;;;3.47;2.40;;;3.30;99.90;;;;;;5477705;26;21252;-53
2024/04/22 03:20:55;;;;;;;3.67;2.53;;;3.30;99.90;;;;;;5480125;26;20364;-56
2024/04/22 03:23:23;;;;;;;2.17;1.90;;;3.20;99.90;;;;;;5485439;26;20230;-52
2024/04/22 03:25:52;;;;;;;3.23;2.30;;;3.20;99.90;;;;;;5493384;26;20428;-54
2024/04/22 03:28:19;;;;;;;3.10;2.50;;;3.20;99.90;;;;;;5434588;25;20272;-51
2024/04/22 03:30:47;;;;;;;2.20;2.00;;;3.10;99.90;;;;;;5494151;26;20898;-53
2024/04/22 03:33:13;;;;;;;3.37;2.57;;;3.10;99.90;;;;;;5472638;26;20289;-52
2024/04/22 03:35:42;;;;;;;3.60;2.47;;;3.00;99.90;;;;;;5472701;26;21099;-51
2024/04/22 03:38:10;;;;;;;3.67;2.40;;;3.00;99.90;;;;;;5476729;26;20231;-55
2024/04/22 03:40:41;;;;;;;3.10;2.10;;;2.90;99.90;;;;;;5478051;26;20601;-55
2024/04/22 03:43:13;;;;;;;3.33;2.37;;;2.90;99.90;;;;;;5427040;26;20246;-53
2024/04/22 03:45:44;;;;;;;4.30;2.60;;;3.00;99.90;;;;;;5462692;26;20250;-51
2024/04/22 03:50:57;;;;;;;3.97;2.40;;;3.10;99.90;;;;;;5479283;26;20264;-53
2024/04/22 03:53:22;;;;;;;4.03;3.07;;;3.00;99.90;;;;;;5469139;25;20243;-56
2024/04/22 03:55:53;;;;;;;4.17;2.63;;;3.00;99.90;;;;;;5480689;26;20249;-55
2024/04/22 03:58:23;;;;;;;2.20;2.00;;;2.90;99.90;;;;;;5438057;26;20242;-53
2024/04/22 04:00:51;;;;;;;2.10;1.90;;;2.80;99.90;;;;;;5480910;26;20338;-55
2024/04/22 04:03:17;;;;;;;2.20;2.00;;;2.90;99.90;;;;;;5473297;26;20269;-55
2024/04/22 04:05:46;;;;;;;4.53;2.30;;;2.90;99.90;;;;;;5479297;26;20330;-50
2024/04/22 04:08:11;;;;;;;3.00;2.57;;;2.90;99.90;;;;;;5466319;26;20284;-58
2024/04/22 04:10:40;;;;;;;2.43;1.93;;;2.90;99.90;;;;;;5465230;26;21123;-51
2024/04/22 04:13:09;;;;;;;4.03;2.33;;;2.90;99.90;;;;;;5438215;26;20251;-56
2024/04/22 04:15:37;;;;;;;2.73;2.50;;;3.00;99.90;;;;;;5484845;26;20237;-54
2024/04/22 04:18:03;;;;;;;4.63;2.70;;;3.00;99.90;;;;;;5480057;26;20387;-56
2024/04/22 04:20:32;;;;;;;4.47;2.73;;;2.90;99.90;;;;;;5477114;26;20238;-56
2024/04/22 04:22:58;;;;;;;3.10;2.70;;;2.90;99.90;;;;;;5462587;26;20292;-56
2024/04/22 04:25:26;;;;;;;3.60;2.67;;;2.90;99.90;;;;;;5474234;26;21137;-51
2024/04/22 04:27:52;;;;;;;3.40;2.77;;;2.80;99.90;;;;;;5493920;26;20234;-55
2024/04/22 04:30:23;;;;;;;2.53;2.33;;;2.80;99.90;;;;;;5444145;26;20285;-55
2024/04/22 04:32:49;;;;;;;3.17;2.40;;;2.90;99.90;;;;;;5480727;25;20282;-55
2024/04/22 04:35:17;;;;;;;2.47;2.07;;;2.90;99.90;;;;;;5477751;26;20226;-55
2024/04/22 04:37:43;;;;;;;3.73;2.10;;;2.90;99.90;;;;;;5444553;26;20227;-55
2024/04/22 04:40:13;;;;;;;2.70;2.00;;;2.90;99.90;;;;;;5477399;26;20287;-55
2024/04/22 04:42:39;;;;;;;3.90;2.17;;;2.90;99.90;;;;;;5495866;26;20548;-55
2024/04/22 04:45:07;;;;;;;1.83;1.73;;;2.90;99.90;;;;;;5430828;26;20273;-52
2024/04/22 04:47:36;;;;;;;2.57;2.20;;;3.00;99.90;;;;;;5498422;26;20274;-53
2024/04/22 04:50:05;;;;;;;4.53;1.97;;;3.00;99.90;;;;;;5461856;26;20278;-52
2024/04/22 04:52:31;;;;;;;3.27;2.03;;;3.00;99.90;;;;;;5470329;26;20310;-56
2024/04/22 04:55:00;;;;;;;5.23;1.93;;;3.00;99.90;;;;;;5463582;26;20720;-52
2024/04/22 04:57:25;;;;;;;2.57;2.17;;;3.10;99.90;;;;;;5474054;26;20261;-54
2024/04/22 04:59:54;;;;;;;2.73;2.53;;;3.10;99.90;;;;;;5442546;26;20238;-57
2024/04/22 05:02:20;;;;;;;2.50;1.73;;;3.10;99.90;;;;;;5476506;26;20766;-53
2024/04/22 05:04:52;;;;;;;2.40;2.20;;;3.20;99.90;;;;;;5458517;26;20226;-56
2024/04/22 05:07:17;;;;;;;4.30;2.47;;;3.10;99.90;;;;;;5465882;26;20233;-53
2024/04/22 05:09:46;;;;;;;3.47;2.03;;;3.20;99.90;;;;;;5481399;26;20933;-55
2024/04/22 05:12:12;;;;;;;2.63;1.87;;;3.20;99.90;;;;;;5477015;26;20256;-54
2024/04/22 05:14:40;;;;;;;5.47;2.07;;;3.20;99.90;;;;;;5485702;26;20230;-56
2024/04/22 05:17:06;;;;;;;3.37;2.13;;;3.30;99.90;;;;;;5431073;26;20237;-55
2024/04/22 05:19:35;;;;;;;3.83;2.33;;;3.30;99.90;;;;;;5467651;26;20349;-55
2024/04/22 05:22:03;;;;;;;3.07;2.40;;;3.40;99.90;;;;;;5461895;26;20277;-51
2024/04/22 05:24:32;;;;;;;2.93;2.40;;;3.40;99.90;;;;;;5478212;26;20273;-52
2024/04/22 05:26:58;;;;;;;4.00;2.57;;;3.50;99.90;;;;;;5486575;26;20269;-55
2024/04/22 05:29:27;;;;;;;2.87;1.97;;;3.50;99.90;;;;;;5490797;26;20229;-55
2024/04/22 05:31:53;;;;;;;3.27;2.47;;;3.50;99.90;;;;;;5421428;26;20272;-56
2024/04/22 05:37:08;;;;;;;2.33;2.13;;;3.60;99.90;;;;;;5482150;25;20363;-53
2024/04/22 05:39:36;;;;;;;2.17;2.07;;;3.60;99.90;;;;;;5470146;26;20252;-55
2024/04/22 05:42:05;;;;;;;3.60;2.20;;;3.70;99.90;;;;;;5485612;26;21104;-50
2024/04/22 05:44:34;;;;;;;3.97;2.20;;;3.70;99.90;;;;;;5470838;26;20269;-54
2024/04/22 05:47:02;;;;;;;2.30;2.10;;;3.70;99.90;;;;;;5412723;26;23011;-57
2024/04/22 05:49:31;;;;;;;1.80;1.70;;;3.80;99.90;;;;;;5472106;26;20235;-53
2024/04/22 05:51:57;;;;;;;4.93;1.93;;;3.80;99.90;;;;;;5469899;26;20301;-54
2024/04/22 05:54:28;;;;;;;2.83;1.77;;;3.90;99.90;;;;;;5465552;26;20237;-55
2024/04/22 05:56:54;;;;;;;1.47;1.33;;;3.90;99.90;;;;;;5478246;26;21352;-58
2024/04/22 05:59:22;;;;;;;3.83;1.40;;;3.90;99.90;;;;;;5461071;26;20222;-52
2024/04/22 06:01:48;;;;;;;6.70;1.53;;;4.00;99.90;;;;;;5469483;26;20378;-55
2024/04/22 06:04:17;;;;;;;2.10;1.37;;;4.00;99.90;;;;;;5448668;26;20292;-53
2024/04/22 06:06:44;;;;;;;2.00;1.33;;;4.10;99.90;;;;;;5478388;26;20230;-55
2024/04/22 06:09:12;;;;;;;1.23;1.13;;;4.20;99.90;;;;;;5448055;26;20324;-53
2024/04/22 06:11:41;;;;;;;3.67;1.20;;;4.20;99.90;;;;;;5471821;26;20706;-54
2024/04/22 06:14:10;;;;;;;3.37;1.13;;;4.20;99.90;;;;;;5473342;26;20231;-58
2024/04/22 06:16:36;;;;;;;1.47;1.03;;;4.30;99.90;;;;;;5482014;26;20277;-54
2024/04/22 06:19:04;;;;;;;3.00;1.60;;;4.30;99.90;;;;;;5434674;26;20251;-57
2024/04/22 06:21:30;;;;;;;2.80;1.20;;;4.40;99.90;;;;;;5476784;26;20227;-57
2024/04/22 06:23:58;;;;;;;3.47;1.30;;;4.40;99.90;;;;;;5470551;26;20341;-59
2024/04/22 06:26:24;;;;;;;4.40;1.43;;;4.40;99.90;;;;;;5470078;26;20257;-56
2024/04/22 06:28:56;;;;;;;1.93;1.40;;;4.50;99.90;;;;;;5471695;26;20229;-56
2024/04/22 06:31:22;;;;;;;1.97;1.50;;;4.40;99.90;;;;;;5480401;26;20238;-54
2024/04/22 06:33:50;;;;;;;1.90;1.60;;;4.40;99.90;;;;;;5453384;26;20341;-54
2024/04/22 06:36:17;;;;;;;1.93;1.40;;;4.50;99.90;;;;;;5487229;26;20225;-51
2024/04/22 06:38:45;;;;;;;2.00;1.13;;;4.50;99.90;;;;;;5473407;26;20698;-57
2024/04/22 06:41:11;;;;;;;5.50;1.53;;;4.60;99.90;;;;;;5468902;26;20233;-52
2024/04/22 06:43:39;;;;;;;2.60;1.40;;;4.60;99.90;;;;;;5463372;26;20285;-56
2024/04/22 06:46:08;;;;;;;3.40;1.27;;;4.60;99.90;;;;;;5482153;26;20776;-57
2024/04/22 06:48:36;;;;;;;2.83;1.43;;;4.70;99.90;;;;;;5492282;26;20273;-50
2024/04/22 06:51:03;;;;;;;1.37;1.07;;;4.80;99.90;;;;;;5444902;26;20904;-55
2024/04/22 06:53:31;;;;;;;1.77;1.00;;;4.90;99.90;;;;;;5464875;26;20246;-57
2024/04/22 06:55:57;;;;;;;0.90;0.90;;;4.90;99.90;;;;;;5458203;26;20247;-59
2024/04/22 06:58:25;;;;;;;1.97;0.80;;;4.80;99.90;;;;;;5472249;25;20333;-52
2024/04/22 07:00:51;;;;;;;0.87;0.80;;;4.90;99.90;;;;;;5491096;26;20226;-64
2024/04/22 07:03:22;;;;;;;1.87;0.90;;;4.90;99.90;;;;;;5471044;26;21037;-53
2024/04/22 07:05:48;;;;;;;0.60;0.60;;;4.90;99.90;;;;;;5438227;26;20254;-57
2024/04/22 07:08:17;;;;;;;1.03;0.87;;;4.90;99.90;;;;;;5465101;26;20345;-54
2024/04/22 07:10:42;;;;;;;0.53;0.53;;;5.00;99.90;;;;;;5463449;26;20231;-56
2024/04/22 07:13:11;;;;;;;1.33;0.80;;;5.00;99.90;;;;;;5456091;26;20726;-57
2024/04/22 07:15:37;;;;;;;0.93;0.60;;;5.00;99.90;;;;;;5480229;26;20231;-57
2024/04/22 07:18:06;;;;;;;1.00;0.90;;;5.00;99.90;;;;;;5471869;26;20264;-58
2024/04/22 07:20:36;;;;;;;0.70;0.70;;;5.10;99.90;;;;;;5436346;26;20253;-55
2024/04/22 07:23:04;;;;;;;2.90;0.63;;;5.10;99.90;;;;;;5466954;26;20246;-58
2024/04/22 07:25:30;;;;;;;0.93;0.70;;;5.10;99.90;;;;;;5467164;26;20272;-50
2024/04/22 07:27:59;;;;;;;0.47;0.43;;;5.10;99.90;;;;;;5472393;26;20336;-57
2024/04/22 07:30:25;;;;;;;1.77;0.80;;;5.20;99.90;;;;;;5472200;26;20328;-56
2024/04/22 07:32:54;;;;;;;0.90;0.90;;;5.10;99.90;;;;;;5504873;26;20738;-57
2024/04/22 07:35:21;;;;;;;1.30;0.80;;;5.20;99.90;;;;;;5435229;26;20255;-55
2024/04/22 07:37:56;;;;;;;4.17;0.90;;;5.20;99.90;;;;;;5478751;26;20223;-53
2024/04/22 07:40:23;;;;;;;1.70;0.80;;;5.20;99.90;;;;;;5481962;26;20272;-54
2024/04/22 07:42:51;;;;;;;1.90;0.90;;;5.20;99.90;;;;;;5484522;26;20630;-55
2024/04/22 07:45:17;;;;;;;0.83;0.83;;;5.20;99.90;;;;;;5467824;26;20234;-57
2024/04/22 07:47:46;;;;;;;3.93;0.60;;;5.30;99.90;;;;;;5490419;26;20833;-49
2024/04/22 07:50:12;;;;;;;1.37;0.70;;;5.40;99.90;;;;;;5469688;26;21319;-56
2024/04/22 07:52:42;;;;;;;0.70;0.70;;;5.40;99.90;;;;;;5435244;26;20289;-53
2024/04/22 07:55:12;;;;;;;0.80;0.53;;;5.50;99.90;;;;;;5467814;26;20235;-56
2024/04/22 07:57:48;;;;;;;4.27;0.77;;;5.50;99.90;;;;;;5473905;26;20235;-49
2024/04/22 08:00:17;;;;;;;1.27;0.57;;;5.60;99.90;;;;;;5447388;26;20292;-51
2024/04/22 08:02:47;;;;;;;3.17;0.90;;;5.70;99.90;;;;;;5482664;26;20231;-55
2024/04/22 08:05:13;;;;;;;0.70;0.70;;;5.80;99.90;;;;;;5463570;26;20265;-56
2024/04/22 08:07:42;;;;;;;0.93;0.70;;;5.80;99.90;;;;;;5443463;26;20237;-51
2024/04/22 08:10:11;;;;;;;0.83;0.60;;;5.90;99.90;;;;;;5490700;25;20264;-59
2024/04/22 08:12:39;;;;;;;1.57;0.93;;;6.00;99.90;;;;;;5479751;26;20295;-56
2024/04/22 08:15:05;;;;;;;3.23;1.10;;;6.10;99.90;;;;;;5453979;26;20242;-55
2024/04/22 08:17:34;;;;;;;2.00;1.00;;;6.10;99.90;;;;;;5472180;26;20231;-56
2024/04/22 08:20:00;;;;;;;1.00;0.90;;;6.20;99.90;;;;;;5474501;26;20720;-56
2024/04/22 08:22:30;;;;;;;0.70;0.70;;;6.20;99.90;;;;;;5445344;26;20389;-54
2024/04/22 08:24:56;;;;;;;1.13;0.80;;;6.30;99.90;;;;;;5472673;26;20226;-53
2024/04/22 08:27:27;;;;;;;3.23;0.70;;;6.20;99.90;;;;;;5475447;26;20265;-53
2024/04/22 08:29:53;;;;;;;1.20;0.90;;;6.20;99.90;;;;;;5480881;26;20672;-55
2024/04/22 08:32:22;;;;;;;1.13;1.03;;;6.20;99.90;;;;;;5467556;26;20314;-55
2024/04/22 08:34:48;;;;;;;1.67;0.67;;;6.20;99.90;;;;;;5478148;26;20705;-55
2024/04/22 08:37:17;;;;;;;0.50;0.50;;;6.30;99.90;;;;;;5485413;26;20530;-54
2024/04/22 08:39:43;;;;;;;0.67;0.67;;;6.30;99.90;;;;;;5436619;26;20246;-55
2024/04/22 08:42:13;;;;;;;0.93;0.70;;;6.20;99.90;;;;;;5494552;26;20312;-54
2024/04/22 08:44:43;;;;;;;0.60;0.60;;;6.20;99.90;;;;;;5472203;26;20322;-49
2024/04/22 08:47:12;;;;;;;0.60;0.60;;;6.30;99.90;;;;;;5450436;26;20223;-54
2024/04/22 08:49:38;;;;;;;1.50;0.80;;;6.40;99.90;;;;;;5481576;26;20632;-48
2024/04/22 08:52:07;;;;;;;0.80;0.70;;;6.30;99.90;;;;;;5484333;26;20234;-49
2024/04/22 08:54:35;;;;;;;1.10;1.00;;;6.30;99.90;;;;;;5449130;26;20246;-51
2024/04/22 08:57:04;;;;;;;0.90;0.60;;;6.50;99.90;;;;;;5493276;26;20285;-55
2024/04/22 08:59:30;;;;;;;1.93;0.93;;;6.60;99.90;;;;;;5467908;26;20229;-56
2024/04/22 09:02:06;;;;;;;0.87;0.80;;;6.60;99.90;;;;;;5473687;26;20268;-56
2024/04/22 09:04:32;;;;;;;1.67;0.73;;;6.60;99.90;;;;;;5484609;26;20326;-56
2024/04/22 09:07:02;;;;;;;2.93;1.10;;;6.80;99.90;;;;;;5481546;26;20242;-57
2024/04/22 09:09:28;;;;;;;0.73;0.70;;;6.80;99.90;;;;;;5471407;26;20601;-55
2024/04/22 09:11:56;;;;;;;0.70;0.70;;;6.80;99.90;;;;;;5430800;26;20239;-57
2024/04/22 09:14:22;;;;;;;1.33;0.93;;;6.80;99.90;;;;;;5468365;26;20595;-53
2024/04/22 09:16:51;;;;;;;2.30;0.73;;;6.90;99.90;;;;;;5481348;26;20642;-54
2024/04/22 09:19:24;;;;;;;1.20;0.87;;;7.00;99.90;;;;;;5467011;25;21099;-56
2024/04/22 09:21:54;;;;;;;1.47;1.00;;;7.00;99.90;;;;;;5473087;26;20234;-57
2024/04/22 09:24:20;;;;;;;1.30;1.10;;;7.10;99.90;;;;;;5484584;26;20264;-55
2024/04/22 09:26:49;;;;;;;1.13;1.00;;;7.10;99.90;;;;;;5441944;26;20285;-55
2024/04/22 09:29:18;;;;;;;1.93;1.30;;;7.10;99.90;;;;;;5475283;26;20276;-56
2024/04/22 09:31:48;;;;;;;1.07;1.00;;;7.10;99.90;;;;;;5482468;26;20284;-52
2024/04/22 09:34:17;;;;;;;2.03;1.00;;;7.10;99.90;;;;;;5474220;26;20238;-55
2024/04/22 09:36:49;;;;;;;3.43;0.80;;;7.10;99.90;;;;;;5494287;26;20277;-50
2024/04/22 09:39:15;;;;;;;2.47;1.10;;;7.10;99.90;;;;;;5471018;26;20238;-53
2024/04/22 09:41:44;;;;;;;2.27;1.07;;;7.30;99.90;;;;;;5432357;26;20258;-57
2024/04/22 09:44:11;;;;;;;3.40;1.10;;;7.30;99.90;;;;;;5472356;26;20246;-53
2024/04/22 09:46:41;;;;;;;1.33;1.23;;;7.20;99.90;;;;;;5484571;26;20269;-52
2024/04/22 09:49:08;;;;;;;2.37;1.40;;;7.30;99.90;;;;;;5469763;26;20234;-56
2024/04/22 09:51:38;;;;;;;1.60;1.03;;;7.30;99.90;;;;;;5486885;26;20340;-53
2024/04/22 09:54:07;;;;;;;2.63;1.20;;;7.40;99.90;;;;;;5466601;26;20227;-57
2024/04/22 09:56:38;;;;;;;2.47;1.53;;;7.60;99.90;;;;;;5430431;26;20242;-54
2024/04/22 09:59:05;;;;;;;1.90;1.20;;;7.70;99.90;;;;;;5472637;26;20234;-56
2024/04/22 10:01:33;;;;;;;3.27;1.50;;;7.70;99.90;;;;;;5470624;26;20231;-58
2024/04/22 10:03:59;;;;;;;3.40;1.60;;;7.80;99.90;;;;;;5478838;25;20791;-56
2024/04/22 10:06:29;;;;;;;5.13;1.50;;;7.90;99.90;;;;;;5470093;26;20230;-55
2024/04/22 10:08:58;;;;;;;1.43;1.33;;;8.10;99.90;;;;;;5472402;26;21030;-57
2024/04/22 10:11:32;;;;;;;1.17;1.07;;;8.30;99.90;;;;;;5472161;26;20241;-55
2024/04/22 10:14:07;;;;;;;2.93;1.70;;;8.40;99.90;;;;;;5447090;26;20243;-57
2024/04/22 10:16:36;;;;;;;1.33;1.10;;;8.50;99.50;;;;;;5478113;26;20277;-55
2024/04/22 10:19:02;;;;;;;1.80;1.40;;;8.30;99.80;;;;;;5479308;26;20265;-57
2024/04/22 10:21:30;;;;;;;1.80;1.40;;;8.20;99.90;;;;;;5460040;26;20304;-56
2024/04/22 10:23:56;;;;;;;4.00;1.80;;;8.20;99.90;;;;;;5475513;26;20231;-57
2024/04/22 10:26:25;;;;;;;1.70;1.60;;;8.20;99.90;;;;;;5487193;26;20264;-56
2024/04/22 10:28:54;;;;;;;2.37;1.53;;;8.10;99.90;;;;;;5445523;26;20242;-56
2024/04/22 10:31:24;;;;;;;3.30;1.70;;;8.10;99.90;;;;;;5483872;26;21109;-51
2024/04/22 10:33:50;;;;;;;1.80;1.60;;;8.10;99.90;;;;;;5479518;25;20297;-58
2024/04/22 10:36:18;;;;;;;2.90;1.67;;;8.10;99.90;;;;;;5460702;26;20231;-54
2024/04/22 10:38:44;;;;;;;2.73;1.90;;;8.10;99.90;;;;;;5466120;26;20549;-53
2024/04/22 10:41:13;;;;;;;2.47;2.03;;;7.90;99.90;;;;;;5485024;26;20259;-51
2024/04/22 10:43:41;;;;;;;2.17;1.93;;;7.90;99.90;;;;;;5458935;26;20249;-51
2024/04/22 10:46:13;;;;;;;1.70;1.43;;;8.00;99.90;;;;;;5485454;26;20231;-54
2024/04/22 10:48:40;;;;;;;1.90;1.80;;;8.10;99.90;;;;;;5484435;26;20226;-55
2024/04/22 10:51:08;;;;;;;3.27;1.60;;;8.20;99.90;;;;;;5471560;26;20226;-55
2024/04/22 10:53:35;;;;;;;1.67;1.57;;;8.00;99.90;;;;;;5484283;25;20229;-54
2024/04/22 10:56:04;;;;;;;1.70;1.57;;;7.90;99.90;;;;;;5479302;26;20892;-58
2024/04/22 10:58:30;;;;;;;3.60;1.93;;;7.60;99.90;;;;;;5485138;26;20282;-56
2024/04/22 11:00:59;;;;;;;5.40;2.20;;;7.50;99.90;;;;;;5488203;26;20270;-52
2024/04/22 11:03:27;;;;;;;1.70;1.57;;;7.60;99.90;;;;;;5414457;26;21077;-53
2024/04/22 11:06:02;;;;;;;5.60;1.83;;;7.70;99.90;;;;;;5471722;26;21257;-52
2024/04/22 11:08:29;;;;;;;1.83;1.73;;;7.50;99.90;;;;;;5473244;26;20281;-56
2024/04/22 11:10:59;;;;;;;3.10;1.70;;;7.30;99.90;;;;;;5498421;26;20749;-54
2024/04/22 11:13:25;;;;;;;2.93;1.93;;;7.40;99.90;;;;;;5473065;26;20234;-53
2024/04/22 11:15:53;;;;;;;3.13;2.00;;;7.50;99.90;;;;;;5487717;26;20269;-54
2024/04/22 11:18:21;;;;;;;4.63;1.43;;;7.40;99.90;;;;;;5434306;26;20281;-51
2024/04/22 11:20:52;;;;;;;1.80;1.70;;;7.30;99.90;;;;;;5478132;26;20234;-51
2024/04/22 11:23:18;;;;;;;1.70;1.60;;;7.30;99.90;;;;;;5484786;26;20233;-50
2024/04/22 11:25:46;;;;;;;1.60;1.50;;;7.30;99.90;;;;;;5481271;26;20677;-52
2024/04/22 11:28:12;;;;;;;4.27;1.80;;;7.20;99.90;;;;;;5471478;26;20265;-54
2024/04/22 11:30:41;;;;;;;1.87;1.77;;;7.30;99.90;;;;;;5483579;26;20250;-53
2024/04/22 11:33:07;;;;;;;2.00;1.90;;;7.30;99.90;;;;;;5459716;26;20233;-55
2024/04/22 11:35:37;;;;;;;2.17;1.97;;;7.40;99.90;;;;;;5467467;26;20285;-54
2024/04/22 11:38:13;;;;;;;3.03;1.70;;;7.50;99.90;;;;;;5471933;26;20227;-56
2024/04/22 11:40:42;;;;;;;2.13;1.93;;;7.60;99.90;;;;;;5475895;26;20226;-55
2024/04/22 11:43:08;;;;;;;3.07;2.00;;;7.60;99.90;;;;;;5479974;26;20296;-55
2024/04/22 11:45:36;;;;;;;2.47;2.00;;;7.70;99.90;;;;;;5465049;26;20227;-55
2024/04/22 11:48:02;;;;;;;2.57;2.10;;;7.80;99.90;;;;;;5461293;26;20279;-55
2024/04/22 11:50:31;;;;;;;3.70;2.20;;;7.70;99.90;;;;;;5453845;26;21145;-54
2024/04/22 11:52:57;;;;;;;2.10;2.00;;;7.80;99.90;;;;;;5486549;26;20285;-53
2024/04/22 11:55:28;;;;;;;2.40;1.60;;;7.80;99.90;;;;;;5460617;26;20227;-53
2024/04/22 11:57:54;;;;;;;2.60;2.03;;;7.70;99.90;;;;;;5486961;26;20243;-51
2024/04/22 12:00:22;;;;;;;2.90;1.97;;;7.70;99.90;;;;;;5449028;26;20246;-54
2024/04/22 12:02:48;;;;;;;2.03;1.80;;;7.80;99.90;;;;;;5494761;26;20284;-52
2024/04/22 12:05:16;;;;;;;3.07;2.40;;;7.90;99.90;;;;;;5437038;26;20276;-56
2024/04/22 12:07:43;;;;;;;3.17;2.07;;;8.10;99.90;;;;;;5481967;26;20716;-54
2024/04/22 12:10:12;;;;;;;2.33;2.13;;;8.20;99.90;;;;;;5473941;26;20388;-56
2024/04/22 12:12:41;;;;;;;1.93;1.80;;;8.20;99.90;;;;;;5462618;26;20277;-54
2024/04/22 12:15:12;;;;;;;1.87;1.77;;;8.40;99.90;;;;;;5473159;25;20274;-55
2024/04/22 12:17:39;;;;;;;7.90;2.10;;;8.80;99.90;;;;;;5462467;26;21083;-57
2024/04/22 12:20:10;;;;;;;2.17;1.80;;;8.90;99.90;;;;;;5474443;26;20590;-57
2024/04/22 12:22:36;;;;;;;4.37;2.03;;;8.60;99.90;;;;;;5459865;26;20253;-53
2024/04/22 12:25:05;;;;;;;2.50;2.30;;;8.50;99.90;;;;;;5491289;26;20315;-54
2024/04/22 12:27:31;;;;;;;4.00;2.63;;;8.50;99.90;;;;;;5461090;26;20240;-51
2024/04/22 12:30:02;;;;;;;2.63;2.43;;;8.30;99.90;;;;;;5456337;26;20262;-53
2024/04/22 12:32:28;;;;;;;2.33;2.10;;;8.30;99.90;;;;;;5477309;26;20231;-53
2024/04/22 12:34:59;;;;;;;2.20;2.10;;;8.20;99.90;;;;;;5495714;26;21094;-53
2024/04/22 12:37:25;;;;;;;2.90;2.00;;;8.00;99.90;;;;;;5442385;26;20280;-52
2024/04/22 12:39:54;;;;;;;2.50;2.30;;;8.00;99.90;;;;;;5463396;26;20703;-54
2024/04/22 12:42:19;;;;;;;2.27;1.87;;;7.80;99.90;;;;;;5453401;26;20277;-56
2024/04/22 12:44:48;;;;;;;2.10;1.90;;;7.70;99.90;;;;;;5471679;26;20238;-53
2024/04/22 12:52:48;;;;;;;5.07;2.40;;;7.70;99.90;;;;;;5455453;26;20288;-53
2024/04/22 12:55:17;;;;;;;3.50;2.33;;;7.90;99.90;;;;;;5480950;26;20291;-55
2024/04/22 12:57:45;;;;;;;2.33;2.13;;;8.00;99.90;;;;;;5471001;26;20281;-54
2024/04/22 13:00:14;;;;;;;2.13;1.93;;;8.10;99.90;;;;;;5470739;25;20242;-56
2024/04/22 13:02:46;;;;;;;2.67;1.67;;;8.10;99.90;;;;;;5477679;26;20238;-50
2024/04/22 13:05:14;;;;;;;1.53;1.40;;;8.00;99.90;;;;;;5487303;26;20736;-55
2024/04/22 13:07:43;;;;;;;1.83;1.50;;;8.00;99.90;;;;;;5433927;26;20249;-55
2024/04/22 13:10:12;;;;;;;3.17;2.00;;;8.00;99.90;;;;;;5468453;26;20235;-52
2024/04/22 13:12:40;;;;;;;3.37;1.60;;;8.20;99.90;;;;;;5476591;26;20234;-49